Etusivu
METAR-TAF:

METAR-TAF

Lentoasemat :

Kiana, Alaska, Yhdysvallat

Leveyspiiri: 66-59N, Pituuspiiri: 160-26W, korkeus merenpinnasta: 46 m

Tämänhetkinen sää

Tämä raportti tehtiin 20 minuuttia sitten, kello 21.56 UTC
Tuuli 9 kn lounaasta puuskistuen 15 kn:hen
Lämpötila 13°C
Kosteus 67%
Ilmanpaine 1011 hPa
Näkyvyys: 16.1 km
Hajanaisia pilviä 2100 ft:n korkeudessa

METAR: PAIK 172156Z AUTO 22009G15KT 10SM SCT021 13/07 A2984 RMK AO2 SLP106 T01280067

Aika: 14:16 (22:16 UTC)


TAF: puuttuu

Säähavainnot ja -ennusteet yli 4000 lentoasemalta (METAR- ja TAF-raportit).

Käytössä olevat sääasemat on merkitty karttaan keltaisilla ja punaisilla pisteillä.

Aseta hiiri pisteen päälle nähdäksesi sääaseman nimen.

Klikkaa sitten nähdäksesi säähavainnot ja -ennusteet.

Kartan vaihtaminen: klikkaa mustalla rastilla varustettuja vihreitä pisteitä, niin voit zoomata sisään; viivalla varustettua vihreää pistettä, niin voit zoomata ulos tai vihreitä nuolia, niin pääset viereisille kartoille.


METAR-TAF: